createdAt,value
2018-08-19T00:00:01.008Z,1018.80
2018-08-19T00:01:00.884Z,1018.83
2018-08-19T00:02:00.822Z,1018.79
2018-08-19T00:03:00.738Z,1018.78
2018-08-19T00:04:00.777Z,1018.80
2018-08-19T00:05:00.559Z,1018.80
2018-08-19T00:06:00.527Z,1018.79
2018-08-19T00:07:00.392Z,1018.79
2018-08-19T00:08:00.340Z,1018.75
2018-08-19T00:09:00.264Z,1018.76
2018-08-19T00:10:00.161Z,1018.76
2018-08-19T00:11:00.071Z,1018.73
2018-08-19T00:12:00.016Z,1018.71
2018-08-19T00:12:59.935Z,1018.71
2018-08-19T00:13:59.899Z,1018.68
2018-08-19T00:14:59.770Z,1018.63
2018-08-19T00:15:59.775Z,1018.67
2018-08-19T00:16:59.596Z,1018.64
2018-08-19T00:17:59.586Z,1018.64
2018-08-19T00:18:59.456Z,1018.67
2018-08-19T00:19:59.398Z,1018.63
2018-08-19T00:20:59.285Z,1018.63
2018-08-19T00:21:59.319Z,1018.63
2018-08-19T00:22:59.130Z,1018.66
2018-08-19T00:23:59.154Z,1018.60
2018-08-19T00:24:58.961Z,1018.65
2018-08-19T00:25:58.925Z,1018.60
2018-08-19T00:26:58.801Z,1018.59
2018-08-19T00:27:58.839Z,1018.57
2018-08-19T00:28:58.685Z,1018.61
2018-08-19T00:29:58.644Z,1018.62
2018-08-19T00:30:58.515Z,1018.58
2018-08-19T00:31:58.453Z,1018.60
2018-08-19T00:32:58.327Z,1018.60
2018-08-19T00:33:58.303Z,1018.62
2018-08-19T00:34:58.168Z,1018.62
2018-08-19T00:35:58.179Z,1018.59
2018-08-19T00:36:58.015Z,1018.57
2018-08-19T00:39:40.338Z,1018.57
2018-08-19T00:42:22.321Z,1018.56
2018-08-19T00:43:22.279Z,1018.61
2018-08-19T00:44:22.177Z,1018.58
2018-08-19T00:45:22.125Z,1018.54
2018-08-19T00:46:21.998Z,1018.54
2018-08-19T00:47:22.007Z,1018.54
2018-08-19T00:48:21.841Z,1018.52
2018-08-19T00:49:21.815Z,1018.55
2018-08-19T00:50:21.713Z,1018.56
2018-08-19T00:51:21.734Z,1018.56
2018-08-19T00:52:21.524Z,1018.54
2018-08-19T00:53:21.530Z,1018.56
2018-08-19T00:54:21.376Z,1018.55
2018-08-19T00:55:21.368Z,1018.52
2018-08-19T00:56:21.201Z,1018.53
2018-08-19T00:57:21.245Z,1018.53
2018-08-19T00:58:21.042Z,1018.47
2018-08-19T00:59:21.059Z,1018.47
2018-08-19T01:00:20.914Z,1018.41
2018-08-19T01:01:20.876Z,1018.42
2018-08-19T01:02:20.731Z,1018.42
2018-08-19T01:03:20.675Z,1018.43
2018-08-19T01:04:20.574Z,1018.43
2018-08-19T01:05:20.594Z,1018.40
2018-08-19T01:06:20.427Z,1018.41
2018-08-19T01:07:20.402Z,1018.40
2018-08-19T01:08:20.253Z,1018.43
2018-08-19T01:09:20.204Z,1018.40
2018-08-19T01:10:20.100Z,1018.39
2018-08-19T01:11:20.146Z,1018.40
2018-08-19T01:12:19.929Z,1018.43
2018-08-19T01:15:01.837Z,1018.41
2018-08-19T01:16:01.853Z,1018.41
2018-08-19T01:17:01.666Z,1018.38
2018-08-19T01:18:01.628Z,1018.39
2018-08-19T01:19:01.512Z,1018.36
2018-08-19T01:20:01.541Z,1018.39
2018-08-19T01:21:01.383Z,1018.39
2018-08-19T01:22:01.347Z,1018.35
2018-08-19T01:23:01.200Z,1018.37
2018-08-19T01:24:01.154Z,1018.34
2018-08-19T01:25:01.052Z,1018.37
2018-08-19T01:26:01.072Z,1018.39
2018-08-19T01:27:00.883Z,1018.38
2018-08-19T01:28:00.877Z,1018.42
2018-08-19T01:29:00.718Z,1018.44
2018-08-19T01:30:00.691Z,1018.43
2018-08-19T01:31:00.579Z,1018.44
2018-08-19T01:32:00.522Z,1018.42
2018-08-19T01:33:00.393Z,1018.42
2018-08-19T01:34:00.403Z,1018.45
2018-08-19T01:35:00.258Z,1018.44
2018-08-19T01:36:00.219Z,1018.46
2018-08-19T01:37:00.094Z,1018.42
2018-08-19T01:39:42.348Z,1018.39
2018-08-19T01:40:46.350Z,1018.35
2018-08-19T01:41:42.259Z,1018.40
2018-08-19T01:42:44.179Z,1018.39
2018-08-19T01:43:42.021Z,1018.37
2018-08-19T01:44:42.040Z,1018.40
2018-08-19T01:45:41.853Z,1018.40
2018-08-19T02:08:03.905Z,1018.35
2018-08-19T02:09:03.917Z,1018.37
2018-08-19T02:10:03.724Z,1018.36
2018-08-19T02:11:03.650Z,1018.36
2018-08-19T02:12:03.569Z,1018.40
2018-08-19T02:13:03.555Z,1018.38
2018-08-19T02:14:03.414Z,1018.38
2018-08-19T02:16:45.359Z,1018.30
2018-08-19T02:17:47.801Z,1018.30
2018-08-19T02:18:45.204Z,1018.32
2018-08-19T02:19:45.173Z,1018.29
2018-08-19T02:20:45.130Z,1018.30
2018-08-19T02:21:45.059Z,1018.32
2018-08-19T02:22:44.873Z,1018.32
2018-08-19T02:23:44.905Z,1018.32
2018-08-19T02:24:44.703Z,1018.30
2018-08-19T02:25:44.695Z,1018.28
2018-08-19T02:26:44.550Z,1018.32
2018-08-19T02:27:44.577Z,1018.32
2018-08-19T02:28:44.394Z,1018.34
2018-08-19T02:29:44.388Z,1018.33
2018-08-19T02:30:44.242Z,1018.33
2018-08-19T02:31:44.205Z,1018.33
2018-08-19T02:32:44.071Z,1018.33
2018-08-19T02:33:44.121Z,1018.31
2018-08-19T02:34:43.927Z,1018.34
2018-08-19T02:35:43.919Z,1018.33
2018-08-19T02:36:43.749Z,1018.31
2018-08-19T02:37:43.722Z,1018.32
2018-08-19T02:38:43.590Z,1018.30
2018-08-19T02:39:43.564Z,1018.30
2018-08-19T02:40:43.452Z,1018.30
2018-08-19T02:41:43.448Z,1018.32
2018-08-19T02:42:43.267Z,1018.29
2018-08-19T02:43:43.256Z,1018.26
2018-08-19T02:44:43.127Z,1018.30
2018-08-19T02:45:43.098Z,1018.31
2018-08-19T02:46:42.961Z,1018.24
2018-08-19T02:47:42.976Z,1018.28
2018-08-19T02:48:42.791Z,1018.28
2018-08-19T02:49:42.780Z,1018.25
2018-08-19T02:50:42.656Z,1018.26
2018-08-19T02:51:42.592Z,1018.25
2018-08-19T02:52:42.499Z,1018.28
2018-08-19T02:53:42.502Z,1018.31
2018-08-19T02:54:42.322Z,1018.30
2018-08-19T02:55:42.350Z,1018.30
2018-08-19T02:56:42.180Z,1018.27
2018-08-19T02:57:42.134Z,1018.27
2018-08-19T02:58:42.001Z,1018.23
2018-08-19T02:59:42.030Z,1018.23
2018-08-19T03:00:41.863Z,1018.21
2018-08-19T03:01:42.911Z,1018.27
2018-08-19T03:02:41.677Z,1018.25
2018-08-19T03:03:41.654Z,1018.26
2018-08-19T03:04:41.519Z,1018.25
2018-08-19T03:05:41.503Z,1018.21
2018-08-19T03:06:41.375Z,1018.20
2018-08-19T03:07:41.394Z,1018.20
2018-08-19T03:08:41.214Z,1018.17
2018-08-19T03:11:23.374Z,1018.20
2018-08-19T03:12:23.400Z,1018.18
2018-08-19T03:13:23.202Z,1018.21
2018-08-19T03:14:23.183Z,1018.20
2018-08-19T03:15:23.033Z,1018.19
2018-08-19T03:16:23.036Z,1018.23
2018-08-19T03:17:22.883Z,1018.23
2018-08-19T03:18:22.901Z,1018.24
2018-08-19T03:19:22.714Z,1018.27
2018-08-19T03:20:22.713Z,1018.32
2018-08-19T03:21:22.580Z,1018.29
2018-08-19T03:22:22.522Z,1018.30
2018-08-19T03:23:22.395Z,1018.31
2018-08-19T03:24:22.435Z,1018.31
2018-08-19T03:25:22.235Z,1018.29
2018-08-19T03:26:22.275Z,1018.25
2018-08-19T03:27:22.072Z,1018.26
2018-08-19T03:28:22.055Z,1018.22
2018-08-19T03:29:21.914Z,1018.22
2018-08-19T03:30:21.974Z,1018.26
2018-08-19T03:31:21.757Z,1018.27
2018-08-19T03:32:22.714Z,1018.26
2018-08-19T03:33:21.603Z,1018.27
2018-08-19T03:34:21.569Z,1018.23
2018-08-19T03:35:21.434Z,1018.21
2018-08-19T03:38:03.445Z,1018.26
2018-08-19T03:39:03.382Z,1018.22
2018-08-19T03:40:03.199Z,1018.20
2018-08-19T03:41:03.188Z,1018.21
2018-08-19T03:42:03.065Z,1018.21
2018-08-19T03:43:03.000Z,1018.21
2018-08-19T03:44:02.885Z,1018.18
2018-08-19T03:45:02.906Z,1018.20
2018-08-19T03:46:02.720Z,1018.17
2018-08-19T03:47:03.788Z,1018.18
2018-08-19T03:48:02.656Z,1018.21
2018-08-19T03:49:02.526Z,1018.21
2018-08-19T03:50:02.444Z,1018.20
2018-08-19T03:51:02.437Z,1018.20
2018-08-19T03:52:02.245Z,1018.21
2018-08-19T03:53:04.224Z,1018.24
2018-08-19T03:54:02.084Z,1018.22
2018-08-19T03:55:02.062Z,1018.22
2018-08-19T03:56:01.966Z,1018.20
2018-08-19T03:57:01.967Z,1018.22
2018-08-19T03:58:01.785Z,1018.18
2018-08-19T03:59:01.801Z,1018.19
2018-08-19T04:00:01.606Z,1018.20
2018-08-19T04:06:25.411Z,1018.24
2018-08-19T04:07:25.238Z,1018.21
2018-08-19T04:08:25.222Z,1018.18
2018-08-19T04:09:25.078Z,1018.20
2018-08-19T04:10:25.096Z,1018.21
2018-08-19T04:11:24.916Z,1018.18
2018-08-19T04:12:24.900Z,1018.14
2018-08-19T04:13:24.762Z,1018.15
2018-08-19T04:14:24.735Z,1018.16
2018-08-19T04:15:24.636Z,1018.18
2018-08-19T04:16:24.621Z,1018.17
2018-08-19T04:17:24.452Z,1018.18
2018-08-19T04:18:24.426Z,1018.17
2018-08-19T04:19:24.302Z,1018.13
2018-08-19T04:20:24.244Z,1018.15
2018-08-19T04:21:24.130Z,1018.14
2018-08-19T04:22:24.152Z,1018.17
2018-08-19T04:23:24.036Z,1018.19
2018-08-19T04:24:23.992Z,1018.17
2018-08-19T04:25:23.801Z,1018.16
2018-08-19T04:28:05.893Z,1018.19
2018-08-19T04:29:05.901Z,1018.21
2018-08-19T04:30:05.712Z,1018.18
2018-08-19T04:31:05.675Z,1018.21
2018-08-19T04:32:05.556Z,1018.23
2018-08-19T04:33:05.586Z,1018.23
2018-08-19T04:34:05.424Z,1018.25
2018-08-19T04:35:05.397Z,1018.26
2018-08-19T04:36:05.240Z,1018.24
2018-08-19T04:37:05.204Z,1018.29
2018-08-19T04:38:05.078Z,1018.23
2018-08-19T04:39:06.067Z,1018.25
2018-08-19T04:40:04.913Z,1018.24
2018-08-19T04:41:04.924Z,1018.24
2018-08-19T04:42:04.759Z,1018.28
2018-08-19T04:43:04.752Z,1018.29
2018-08-19T04:44:04.618Z,1018.25
2018-08-19T04:45:04.570Z,1018.27
2018-08-19T04:46:04.439Z,1018.23
2018-08-19T04:48:46.380Z,1018.30
2018-08-19T04:49:46.378Z,1018.27
2018-08-19T04:50:46.226Z,1018.25
2018-08-19T04:56:27.784Z,1018.19
2018-08-19T04:57:27.600Z,1018.19
2018-08-19T04:58:27.564Z,1018.20
2018-08-19T04:59:27.445Z,1018.22
2018-08-19T05:00:27.510Z,1018.22
2018-08-19T05:01:27.291Z,1018.24
2018-08-19T05:02:27.298Z,1018.28
2018-08-19T05:03:27.126Z,1018.21
2018-08-19T05:04:27.092Z,1018.27
2018-08-19T05:05:26.988Z,1018.29
2018-08-19T05:06:27.033Z,1018.29
2018-08-19T05:07:26.809Z,1018.31
2018-08-19T05:08:27.025Z,1018.29
2018-08-19T05:09:26.666Z,1018.32
2018-08-19T05:12:08.913Z,1018.34
2018-08-19T05:13:08.926Z,1018.35
2018-08-19T05:14:08.748Z,1018.34
2018-08-19T05:16:50.883Z,1018.38
2018-08-19T05:17:51.890Z,1018.36
2018-08-19T05:18:50.724Z,1018.45
2018-08-19T05:19:50.739Z,1018.41
2018-08-19T05:20:50.597Z,1018.41
2018-08-19T05:21:50.681Z,1018.46
2018-08-19T05:22:50.424Z,1018.47
2018-08-19T05:23:50.368Z,1018.47
2018-08-19T05:24:50.251Z,1018.46
2018-08-19T05:25:50.269Z,1018.46
2018-08-19T05:26:50.111Z,1018.44
2018-08-19T05:27:50.113Z,1018.48
2018-08-19T05:28:49.924Z,1018.47
2018-08-19T05:29:49.881Z,1018.51
2018-08-19T05:30:49.774Z,1018.51
2018-08-19T05:31:49.797Z,1018.45
2018-08-19T05:32:49.623Z,1018.47
2018-08-19T05:33:49.604Z,1018.47
2018-08-19T05:34:49.457Z,1018.44
2018-08-19T05:35:49.410Z,1018.43
2018-08-19T05:36:49.288Z,1018.48
2018-08-19T05:37:49.356Z,1018.48
2018-08-19T05:38:49.141Z,1018.48
2018-08-19T05:39:49.130Z,1018.48
2018-08-19T05:40:48.972Z,1018.51
2018-08-19T05:43:30.911Z,1018.53
2018-08-19T05:44:30.936Z,1018.49
2018-08-19T05:45:30.742Z,1018.48
2018-08-19T05:46:30.753Z,1018.50
2018-08-19T05:47:30.595Z,1018.48
2018-08-19T05:48:30.554Z,1018.48
2018-08-19T05:49:30.414Z,1018.43
2018-08-19T05:50:30.362Z,1018.42
2018-08-19T05:51:30.251Z,1018.42
2018-08-19T05:52:30.310Z,1018.44
2018-08-19T05:53:30.100Z,1018.44
2018-08-19T05:54:30.087Z,1018.43
2018-08-19T05:55:29.936Z,1018.42
2018-08-19T05:56:29.916Z,1018.40
2018-08-19T05:57:29.804Z,1018.37
2018-08-19T05:58:29.839Z,1018.37
2018-08-19T05:59:29.618Z,1018.41
2018-08-19T06:00:29.613Z,1018.38
2018-08-19T06:01:29.468Z,1018.42
2018-08-19T06:02:29.448Z,1018.39
2018-08-19T06:03:29.337Z,1018.48
2018-08-19T06:04:29.345Z,1018.42
2018-08-19T06:05:29.148Z,1018.44
2018-08-19T06:08:11.414Z,1018.51
2018-08-19T06:09:11.380Z,1018.62
2018-08-19T06:10:11.240Z,1018.72
2018-08-19T06:12:53.400Z,1018.82
2018-08-19T06:13:54.424Z,1018.85
2018-08-19T06:14:53.240Z,1018.86
2018-08-19T06:15:53.318Z,1018.90
2018-08-19T06:16:53.081Z,1018.84
2018-08-19T06:17:53.095Z,1018.81
2018-08-19T06:18:52.944Z,1018.86
2018-08-19T06:19:52.886Z,1018.83
2018-08-19T06:20:52.776Z,1018.85
2018-08-19T06:21:52.843Z,1018.79
2018-08-19T06:22:52.632Z,1018.84
2018-08-19T06:23:52.637Z,1018.79
2018-08-19T06:27:39.517Z,1018.87
2018-08-19T06:28:39.341Z,1018.90
2018-08-19T06:29:39.373Z,1018.94
2018-08-19T06:30:39.210Z,1018.88
2018-08-19T06:33:21.482Z,1018.91
2018-08-19T06:34:21.439Z,1018.96
2018-08-19T06:35:21.296Z,1019.02
2018-08-19T06:36:21.274Z,1018.87
2018-08-19T06:37:21.109Z,1018.85
2018-08-19T06:40:03.432Z,1018.89
2018-08-19T06:41:03.359Z,1018.91
2018-08-19T06:42:03.257Z,1018.94
2018-08-19T07:08:24.780Z,1018.69
2018-08-19T07:09:24.754Z,1018.60
2018-08-19T07:10:24.619Z,1018.48
2018-08-19T07:11:25.452Z,1018.41
2018-08-19T07:12:24.446Z,1018.45
2018-08-19T07:13:24.466Z,1018.47
2018-08-19T07:14:24.303Z,1018.49
2018-08-19T07:15:24.329Z,1018.55
2018-08-19T07:16:24.203Z,1018.61
2018-08-19T07:17:24.183Z,1018.53
2018-08-19T07:18:24.017Z,1018.51
2018-08-19T07:19:24.009Z,1018.45
2018-08-19T07:20:23.862Z,1018.39
2018-08-19T07:21:23.935Z,1018.40
2018-08-19T07:22:23.713Z,1018.44
2018-08-19T07:23:23.723Z,1018.46
2018-08-19T07:24:23.863Z,1018.47
2018-08-19T07:25:23.522Z,1018.44
2018-08-19T07:26:23.445Z,1018.46
2018-08-19T07:27:23.459Z,1018.45
2018-08-19T07:28:23.285Z,1018.46
2018-08-19T07:29:23.244Z,1018.42
2018-08-19T07:30:23.124Z,1018.45
2018-08-19T07:31:23.203Z,1018.46
2018-08-19T07:32:23.003Z,1018.48
2018-08-19T07:33:22.981Z,1018.50
2018-08-19T07:34:22.855Z,1018.47
2018-08-19T07:35:22.868Z,1018.44
2018-08-19T07:36:22.718Z,1018.50
2018-08-19T07:37:22.680Z,1018.51
2018-08-19T07:38:22.538Z,1018.49
2018-08-19T07:39:22.756Z,1018.47
2018-08-19T07:40:22.395Z,1018.48
2018-08-19T07:41:22.447Z,1018.45
2018-08-19T07:42:22.293Z,1018.46
2018-08-19T07:43:22.335Z,1018.44
2018-08-19T07:44:22.244Z,1018.46
2018-08-19T07:45:22.118Z,1018.47
2018-08-19T07:46:21.939Z,1018.45
2018-08-19T07:47:22.100Z,1018.43
2018-08-19T07:48:21.783Z,1018.42
2018-08-19T07:49:21.849Z,1018.42
2018-08-19T07:50:21.633Z,1018.38
2018-08-19T07:51:21.656Z,1018.37
2018-08-19T07:52:21.537Z,1018.37
2018-08-19T07:53:21.555Z,1018.40
2018-08-19T07:54:21.383Z,1018.37
2018-08-19T07:55:21.373Z,1018.36
2018-08-19T07:56:21.222Z,1018.35
2018-08-19T07:57:21.177Z,1018.39
2018-08-19T07:58:21.243Z,1018.37
2018-08-19T07:59:21.083Z,1018.36
2018-08-19T08:00:20.879Z,1018.40
2018-08-19T08:03:02.955Z,1018.42
2018-08-19T08:04:03.000Z,1018.41
2018-08-19T08:05:02.794Z,1018.43
2018-08-19T08:06:02.818Z,1018.45
2018-08-19T08:07:02.647Z,1018.43
2018-08-19T08:08:02.653Z,1018.46
2018-08-19T08:09:02.518Z,1018.53
2018-08-19T08:10:02.524Z,1018.52
2018-08-19T08:11:02.421Z,1018.57
2018-08-19T08:12:02.334Z,1018.47
2018-08-19T08:13:02.369Z,1018.54
2018-08-19T08:14:02.242Z,1018.50
2018-08-19T08:15:02.057Z,1018.69
2018-08-19T08:16:02.104Z,1018.70
2018-08-19T08:17:01.892Z,1018.53
2018-08-19T08:18:01.911Z,1018.44
2018-08-19T08:19:01.769Z,1018.46
2018-08-19T08:20:01.774Z,1018.46
2018-08-19T08:21:01.656Z,1018.69
2018-08-19T08:22:01.585Z,1018.54
2018-08-19T08:23:01.448Z,1018.54
2018-08-19T08:24:01.532Z,1018.77
2018-08-19T08:25:01.299Z,1018.66
2018-08-19T08:26:01.297Z,1018.57
2018-08-19T08:27:01.144Z,1018.77
2018-08-19T08:28:01.213Z,1018.83
2018-08-19T08:29:01.025Z,1018.80
2018-08-19T08:30:01.018Z,1018.76
2018-08-19T08:31:00.859Z,1018.51
2018-08-19T08:32:00.843Z,1018.68
2018-08-19T08:33:00.714Z,1018.82
2018-08-19T08:34:00.800Z,1018.71
2018-08-19T08:35:00.576Z,1018.78
2018-08-19T08:36:00.547Z,1018.81
2018-08-19T08:37:00.418Z,1018.79
2018-08-19T08:38:00.464Z,1018.81
2018-08-19T08:39:00.293Z,1018.88
2018-08-19T08:40:00.351Z,1018.76
2018-08-19T08:41:00.139Z,1018.87
2018-08-19T08:42:00.179Z,1018.31
2018-08-19T08:43:00.004Z,1018.36
2018-08-19T08:44:00.024Z,1018.79
2018-08-19T08:44:59.855Z,1018.86
2018-08-19T08:45:59.892Z,1018.83
2018-08-19T08:46:59.723Z,1018.84
2018-08-19T08:47:59.782Z,1018.83
2018-08-19T08:48:59.592Z,1018.83
2018-08-19T08:50:00.576Z,1018.84
2018-08-19T08:50:59.464Z,1018.96
2018-08-19T08:51:59.427Z,1018.93
2018-08-19T08:52:59.304Z,1018.44
2018-08-19T08:53:59.350Z,1018.44
2018-08-19T08:54:59.172Z,1018.43
2018-08-19T08:55:59.157Z,1018.40
2018-08-19T08:56:59.025Z,1018.36
2018-08-19T08:57:59.049Z,1018.95
2018-08-19T08:58:58.888Z,1018.91
2018-08-19T08:59:58.906Z,1018.92
2018-08-19T09:00:58.765Z,1018.92
2018-08-19T09:01:58.774Z,1018.37
2018-08-19T09:02:58.612Z,1018.98
2018-08-19T09:03:58.572Z,1018.99
2018-08-19T09:04:58.491Z,1019.04
2018-08-19T09:05:58.516Z,1019.04
2018-08-19T09:06:58.337Z,1018.63
2018-08-19T09:07:58.300Z,1018.67
2018-08-19T09:08:58.187Z,1019.03
2018-08-19T09:09:58.214Z,1019.04
2018-08-19T09:10:58.084Z,1018.48
2018-08-19T09:11:58.239Z,1019.04
2018-08-19T09:12:57.915Z,1018.44
2018-08-19T09:13:57.953Z,1018.56
2018-08-19T09:14:57.777Z,1018.56
2018-08-19T09:15:58.810Z,1019.04
2018-08-19T09:16:57.648Z,1019.01
2018-08-19T09:17:57.674Z,1018.94
2018-08-19T09:18:57.495Z,1018.96
2018-08-19T09:19:57.565Z,1018.55
2018-08-19T09:20:57.377Z,1019.02
2018-08-19T09:21:57.378Z,1018.99
2018-08-19T09:22:57.289Z,1018.91
2018-08-19T09:23:57.354Z,1019.00
2018-08-19T09:24:57.103Z,1018.82
2018-08-19T09:25:57.130Z,1019.02
2018-08-19T09:26:56.952Z,1018.60
2018-08-19T09:27:57.014Z,1018.87
2018-08-19T09:28:56.809Z,1018.90
2018-08-19T09:29:56.831Z,1018.92
2018-08-19T09:30:56.682Z,1018.32
2018-08-19T09:31:56.747Z,1018.96
2018-08-19T09:32:56.568Z,1018.90
2018-08-19T09:33:56.527Z,1018.90
2018-08-19T09:34:56.423Z,1018.87
2018-08-19T09:35:56.480Z,1018.81
2018-08-19T09:36:56.302Z,1018.66
2018-08-19T09:37:56.238Z,1018.35
2018-08-19T09:38:56.151Z,1018.72
2018-08-19T09:39:56.150Z,1018.41
2018-08-19T09:40:56.014Z,1018.82
2018-08-19T09:41:56.001Z,1018.32
2018-08-19T09:42:55.891Z,1018.84
2018-08-19T09:43:55.917Z,1018.43
2018-08-19T09:44:55.792Z,1018.22
2018-08-19T09:45:55.792Z,1018.87
2018-08-19T09:46:55.650Z,1018.81
2018-08-19T09:47:55.757Z,1018.77
2018-08-19T09:48:55.584Z,1018.84
2018-08-19T09:49:55.573Z,1018.81
2018-08-19T09:50:55.361Z,1018.78
2018-08-19T09:51:55.456Z,1018.77
2018-08-19T09:52:55.216Z,1018.75
2018-08-19T09:53:55.264Z,1018.59
2018-08-19T09:54:55.100Z,1018.61
2018-08-19T09:55:55.182Z,1018.67
2018-08-19T09:56:54.989Z,1018.74
2018-08-19T09:57:54.936Z,1018.56
2018-08-19T09:58:54.820Z,1018.45
2018-08-19T09:59:54.870Z,1018.53
2018-08-19T10:00:54.693Z,1018.76
2018-08-19T10:01:54.658Z,1018.71
2018-08-19T10:02:54.590Z,1018.44
2018-08-19T10:03:54.577Z,1018.15
2018-08-19T10:04:54.426Z,1018.09
2018-08-19T10:05:54.486Z,1018.46
2018-08-19T10:06:54.318Z,1018.21
2018-08-19T10:07:54.454Z,1018.04
2018-08-19T10:08:54.181Z,1018.06
2018-08-19T10:09:54.270Z,1018.00
2018-08-19T10:10:54.071Z,1018.15
2018-08-19T10:11:54.039Z,1018.03
2018-08-19T10:12:54.071Z,1018.12
2018-08-19T10:13:53.945Z,1018.05
2018-08-19T10:14:53.840Z,1018.03
2018-08-19T10:15:53.846Z,1017.99
2018-08-19T10:16:53.645Z,1017.96
2018-08-19T10:17:53.658Z,1018.14
2018-08-19T10:18:53.532Z,1017.92
2018-08-19T10:19:53.630Z,1018.22
2018-08-19T10:20:53.361Z,1018.44
2018-08-19T10:21:53.378Z,1018.53
2018-08-19T10:22:53.244Z,1018.34
2018-08-19T10:23:53.288Z,1018.25
2018-08-19T10:24:53.101Z,1018.22
2018-08-19T10:25:53.095Z,1018.16
2018-08-19T10:26:52.984Z,1017.88
2018-08-19T10:27:52.940Z,1018.38
2018-08-19T10:28:52.849Z,1018.48
2018-08-19T10:29:52.841Z,1018.33
2018-08-19T10:30:52.686Z,1018.48
2018-08-19T10:31:52.724Z,1018.44
2018-08-19T10:32:52.567Z,1017.86
2018-08-19T10:33:52.632Z,1018.38
2018-08-19T10:34:52.418Z,1018.50
2018-08-19T10:35:52.447Z,1018.02
2018-08-19T10:36:52.293Z,1018.09
2018-08-19T10:37:52.248Z,1018.26
2018-08-19T10:38:52.226Z,1018.01
2018-08-19T10:39:52.205Z,1018.16
2018-08-19T10:40:52.010Z,1018.24
2018-08-19T10:41:51.968Z,1018.14
2018-08-19T10:42:51.867Z,1018.06
2018-08-19T10:43:51.885Z,1018.09
2018-08-19T10:44:51.746Z,1018.07
2018-08-19T10:45:51.793Z,1018.17
2018-08-19T10:46:51.603Z,1017.94
2018-08-19T10:47:51.590Z,1017.79
2018-08-19T10:48:51.455Z,1017.95
2018-08-19T10:49:51.526Z,1017.80
2018-08-19T10:50:51.327Z,1017.85
2018-08-19T10:51:51.300Z,1018.08
2018-08-19T10:52:51.216Z,1018.01
2018-08-19T10:53:51.250Z,1018.08
2018-08-19T10:54:51.075Z,1018.10
2018-08-19T10:55:51.071Z,1018.07
2018-08-19T10:56:50.954Z,1017.90
2018-08-19T10:57:50.940Z,1018.04
2018-08-19T10:58:50.822Z,1017.79
2018-08-19T10:59:50.873Z,1017.69
2018-08-19T11:00:50.697Z,1017.90
2018-08-19T11:01:50.663Z,1017.81
2018-08-19T11:02:50.567Z,1017.93
2018-08-19T11:03:50.578Z,1017.91
2018-08-19T11:04:50.414Z,1017.96
2018-08-19T11:05:50.392Z,1018.02
2018-08-19T11:06:50.326Z,1018.02
2018-08-19T11:07:50.292Z,1018.02
2018-08-19T11:08:50.152Z,1017.99
2018-08-19T11:09:50.201Z,1017.70
2018-08-19T11:10:50.020Z,1017.94
2018-08-19T11:11:50.055Z,1017.99
2018-08-19T11:12:49.905Z,1018.05
2018-08-19T11:13:49.919Z,1017.96
2018-08-19T11:14:49.792Z,1017.89
2018-08-19T11:15:49.852Z,1017.90
2018-08-19T11:16:49.672Z,1017.87
2018-08-19T11:17:49.653Z,1017.92
2018-08-19T11:18:49.515Z,1017.88
2018-08-19T11:19:49.624Z,1017.88
2018-08-19T11:20:49.402Z,1017.81
2018-08-19T11:21:49.403Z,1017.86
2018-08-19T11:22:49.238Z,1017.89
2018-08-19T11:23:49.268Z,1017.83
2018-08-19T11:24:49.115Z,1017.75
2018-08-19T11:25:49.188Z,1017.70
2018-08-19T11:26:49.021Z,1017.70
2018-08-19T11:27:48.983Z,1017.71
2018-08-19T11:28:48.861Z,1017.71
2018-08-19T11:29:48.928Z,1017.67
2018-08-19T11:30:48.720Z,1017.72
2018-08-19T11:31:48.723Z,1017.78
2018-08-19T11:32:48.618Z,1017.77
2018-08-19T11:33:48.660Z,1017.75
2018-08-19T11:34:48.474Z,1017.80
2018-08-19T11:35:48.584Z,1017.82
2018-08-19T11:36:48.333Z,1017.85
2018-08-19T11:37:48.369Z,1017.76
2018-08-19T11:38:48.234Z,1017.73
2018-08-19T11:39:48.251Z,1017.68
2018-08-19T11:40:48.130Z,1017.68
2018-08-19T11:41:48.127Z,1017.64
2018-08-19T11:42:47.978Z,1017.75
2018-08-19T11:43:47.968Z,1017.77
2018-08-19T11:44:47.821Z,1017.63
2018-08-19T11:45:47.868Z,1017.62
2018-08-19T11:46:47.693Z,1017.66
2018-08-19T11:47:47.699Z,1017.62
2018-08-19T11:48:47.642Z,1017.67
2018-08-19T11:49:47.603Z,1017.75
2018-08-19T11:50:47.425Z,1017.80
2018-08-19T11:51:47.459Z,1017.71
2018-08-19T11:52:47.285Z,1017.64
2018-08-19T11:53:47.358Z,1017.21
2018-08-19T11:54:47.176Z,1017.06
2018-08-19T11:55:47.228Z,1017.09
2018-08-19T11:56:47.037Z,1017.03
2018-08-19T11:57:47.065Z,1016.96
2018-08-19T11:58:46.922Z,1017.01
2018-08-19T11:59:46.973Z,1017.03
2018-08-19T12:00:46.773Z,1016.97
2018-08-19T12:03:29.080Z,1016.91
2018-08-19T12:04:30.121Z,1016.91
2018-08-19T12:05:28.919Z,1017.00
2018-08-19T12:06:28.873Z,1016.88
2018-08-19T12:07:28.788Z,1016.95
2018-08-19T12:08:28.783Z,1016.92
2018-08-19T12:09:28.671Z,1016.88
2018-08-19T12:10:28.690Z,1016.92
2018-08-19T12:11:28.514Z,1016.85
2018-08-19T12:12:28.463Z,1016.81
2018-08-19T12:13:28.387Z,1016.82
2018-08-19T12:14:28.355Z,1016.85
2018-08-19T12:15:28.226Z,1016.82
2018-08-19T12:16:28.168Z,1016.80
2018-08-19T12:17:28.113Z,1016.87
2018-08-19T12:18:28.034Z,1016.81
2018-08-19T12:19:28.617Z,1016.78
2018-08-19T12:20:27.908Z,1016.74
2018-08-19T12:21:27.822Z,1016.76
2018-08-19T12:22:27.845Z,1016.74
2018-08-19T12:23:27.692Z,1016.73
2018-08-19T12:24:27.600Z,1016.70
2018-08-19T12:25:27.561Z,1016.71
2018-08-19T12:26:27.471Z,1016.65
2018-08-19T12:27:27.508Z,1016.67
2018-08-19T12:28:27.313Z,1016.62
2018-08-19T12:29:27.283Z,1016.63
2018-08-19T12:30:27.239Z,1016.68
2018-08-19T12:31:27.100Z,1016.65
2018-08-19T12:32:27.028Z,1016.63
2018-08-19T12:33:26.937Z,1016.51
2018-08-19T12:34:26.892Z,1016.52
2018-08-19T12:35:26.800Z,1016.50
2018-08-19T12:36:26.739Z,1016.56
2018-08-19T12:37:26.713Z,1016.46
2018-08-19T12:38:26.593Z,1016.42
2018-08-19T12:39:26.522Z,1016.39
2018-08-19T12:40:26.491Z,1016.44
2018-08-19T12:41:26.363Z,1016.46
2018-08-19T12:42:26.284Z,1016.50
2018-08-19T12:43:26.218Z,1016.50
2018-08-19T12:44:26.162Z,1016.44
2018-08-19T12:45:26.088Z,1016.42
2018-08-19T12:46:26.010Z,1016.33
2018-08-19T12:47:25.912Z,1016.35
2018-08-19T12:48:25.970Z,1016.37
2018-08-19T12:49:25.770Z,1016.42
2018-08-19T12:50:25.702Z,1016.39
2018-08-19T12:51:25.728Z,1016.32
2018-08-19T12:52:25.576Z,1016.32
2018-08-19T12:53:25.491Z,1016.28
2018-08-19T12:54:25.407Z,1016.35
2018-08-19T12:55:25.353Z,1016.36
2018-08-19T12:56:25.286Z,1016.33
2018-08-19T12:57:25.232Z,1016.35
2018-08-19T12:58:25.111Z,1016.32
2018-08-19T12:59:25.055Z,1016.34
2018-08-19T13:00:26.982Z,1016.31
2018-08-19T13:01:24.918Z,1016.33
2018-08-19T13:02:24.828Z,1016.26
2018-08-19T13:03:24.737Z,1016.25
2018-08-19T13:04:24.666Z,1016.27
2018-08-19T13:05:24.587Z,1016.25
2018-08-19T13:06:24.548Z,1016.22
2018-08-19T13:07:24.444Z,1016.20
2018-08-19T13:10:06.563Z,1016.24
2018-08-19T13:11:06.602Z,1016.20
2018-08-19T13:12:06.438Z,1016.21
2018-08-19T13:13:06.371Z,1016.18
2018-08-19T13:14:06.260Z,1016.21
2018-08-19T13:15:06.227Z,1016.23
2018-08-19T13:16:06.129Z,1016.15
2018-08-19T13:17:06.076Z,1016.17
2018-08-19T13:18:05.986Z,1016.10
2018-08-19T13:20:48.064Z,1016.08
2018-08-19T13:21:48.160Z,1016.03
2018-08-19T13:22:47.967Z,1016.06
2018-08-19T13:23:47.846Z,1016.06
2018-08-19T13:24:47.771Z,1016.03
2018-08-19T13:25:47.707Z,1016.01
2018-08-19T13:26:47.619Z,1016.00
2018-08-19T13:27:47.596Z,1015.99
2018-08-19T13:28:47.468Z,1016.00
2018-08-19T13:31:29.584Z,1016.01
2018-08-19T13:32:29.579Z,1016.04
2018-08-19T13:33:29.452Z,1016.00
2018-08-19T13:34:29.362Z,1015.93
2018-08-19T13:35:29.266Z,1015.91
2018-08-19T13:36:29.223Z,1015.95
2018-08-19T13:37:29.136Z,1015.95
2018-08-19T13:38:29.100Z,1015.93
2018-08-19T13:39:28.983Z,1015.94